sensor_id;sensor_type;location;lat;lon;timestamp;pressure;altitude;pressure_sealevel;temperature;humidity
47811;BME280;33575;52.600;7.318;2022-10-10T00:01:42;101404.86;;;8.90;84.23
47811;BME280;33575;52.600;7.318;2022-10-10T00:04:12;101402.97;;;8.89;84.25
47811;BME280;33575;52.600;7.318;2022-10-10T00:06:43;101404.33;;;8.88;84.41
47811;BME280;33575;52.600;7.318;2022-10-10T00:09:14;101398.32;;;8.82;84.71
47811;BME280;33575;52.600;7.318;2022-10-10T00:11:44;101393.75;;;8.76;85.03
47811;BME280;33575;52.600;7.318;2022-10-10T00:14:15;101392.09;;;8.72;85.05
47811;BME280;33575;52.600;7.318;2022-10-10T00:16:45;101393.11;;;8.71;85.11
47811;BME280;33575;52.600;7.318;2022-10-10T00:19:16;101389.56;;;8.71;85.05
47811;BME280;33575;52.600;7.318;2022-10-10T00:21:47;101383.44;;;8.68;84.93
47811;BME280;33575;52.600;7.318;2022-10-10T00:24:17;101380.02;;;8.65;85.03
47811;BME280;33575;52.600;7.318;2022-10-10T00:26:48;101379.25;;;8.63;84.85
47811;BME280;33575;52.600;7.318;2022-10-10T00:29:18;101378.17;;;8.62;84.86
47811;BME280;33575;52.600;7.318;2022-10-10T00:31:49;101377.75;;;8.62;84.89
47811;BME280;33575;52.600;7.318;2022-10-10T00:34:20;101376.05;;;8.61;84.83
47811;BME280;33575;52.600;7.318;2022-10-10T00:36:50;101376.81;;;8.60;84.74
47811;BME280;33575;52.600;7.318;2022-10-10T00:39:21;101373.34;;;8.58;84.66
47811;BME280;33575;52.600;7.318;2022-10-10T00:41:52;101369.67;;;8.55;84.62
47811;BME280;33575;52.600;7.318;2022-10-10T00:44:22;101369.32;;;8.50;84.63
47811;BME280;33575;52.600;7.318;2022-10-10T00:46:53;101368.37;;;8.47;84.68
47811;BME280;33575;52.600;7.318;2022-10-10T00:49:26;101365.23;;;8.43;84.87
47811;BME280;33575;52.600;7.318;2022-10-10T00:51:56;101362.27;;;8.37;85.05
47811;BME280;33575;52.600;7.318;2022-10-10T00:54:25;101363.73;;;8.32;85.02
47811;BME280;33575;52.600;7.318;2022-10-10T00:56:57;101361.01;;;8.32;85.18
47811;BME280;33575;52.600;7.318;2022-10-10T00:59:30;101358.86;;;8.28;85.28
47811;BME280;33575;52.600;7.318;2022-10-10T01:01:56;101355.39;;;8.26;85.32
47811;BME280;33575;52.600;7.318;2022-10-10T01:04:29;101356.90;;;8.22;85.52
47811;BME280;33575;52.600;7.318;2022-10-10T01:06:58;101352.22;;;8.19;85.52
47811;BME280;33575;52.600;7.318;2022-10-10T01:09:28;101353.42;;;8.16;85.76
47811;BME280;33575;52.600;7.318;2022-10-10T01:12:07;101355.52;;;8.15;85.36
47811;BME280;33575;52.600;7.318;2022-10-10T01:14:36;101353.83;;;8.15;85.35
47811;BME280;33575;52.600;7.318;2022-10-10T01:17:06;101352.18;;;8.13;85.36
47811;BME280;33575;52.600;7.318;2022-10-10T01:19:48;101350.28;;;8.14;85.26
47811;BME280;33575;52.600;7.318;2022-10-10T01:22:10;101349.91;;;8.14;85.14
47811;BME280;33575;52.600;7.318;2022-10-10T01:24:42;101347.85;;;8.13;85.11
47811;BME280;33575;52.600;7.318;2022-10-10T01:27:10;101344.85;;;8.11;85.13
47811;BME280;33575;52.600;7.318;2022-10-10T01:29:37;101342.78;;;8.10;85.12
47811;BME280;33575;52.600;7.318;2022-10-10T01:32:07;101341.76;;;8.08;85.20
47811;BME280;33575;52.600;7.318;2022-10-10T01:34:37;101341.75;;;8.06;85.25
47811;BME280;33575;52.600;7.318;2022-10-10T01:37:09;101340.12;;;8.04;85.37
47811;BME280;33575;52.600;7.318;2022-10-10T01:39:39;101338.84;;;8.03;85.39
47811;BME280;33575;52.600;7.318;2022-10-10T01:42:09;101334.80;;;8.00;85.68
47811;BME280;33575;52.600;7.318;2022-10-10T01:44:36;101332.32;;;7.99;85.71
47811;BME280;33575;52.600;7.318;2022-10-10T01:47:08;101325.98;;;7.97;86.00
47811;BME280;33575;52.600;7.318;2022-10-10T01:49:41;101324.40;;;7.96;86.03
47811;BME280;33575;52.600;7.318;2022-10-10T01:52:15;101320.52;;;7.96;86.04
47811;BME280;33575;52.600;7.318;2022-10-10T01:54:47;101321.08;;;7.96;86.09
47811;BME280;33575;52.600;7.318;2022-10-10T01:57:18;101317.49;;;7.96;86.06
47811;BME280;33575;52.600;7.318;2022-10-10T01:59:45;101314.75;;;7.96;85.95
47811;BME280;33575;52.600;7.318;2022-10-10T02:02:17;101312.78;;;7.96;85.97
47811;BME280;33575;52.600;7.318;2022-10-10T02:04:45;101308.90;;;7.95;86.08
47811;BME280;33575;52.600;7.318;2022-10-10T02:07:14;101307.11;;;7.97;85.95
47811;BME280;33575;52.600;7.318;2022-10-10T02:09:44;101303.41;;;7.96;86.07
47811;BME280;33575;52.600;7.318;2022-10-10T02:12:13;101301.47;;;7.95;86.09
47811;BME280;33575;52.600;7.318;2022-10-10T02:14:46;101295.94;;;7.88;86.39
47811;BME280;33575;52.600;7.318;2022-10-10T02:17:15;101294.65;;;7.88;86.17
47811;BME280;33575;52.600;7.318;2022-10-10T02:19:48;101290.61;;;7.88;86.17
47811;BME280;33575;52.600;7.318;2022-10-10T02:22:16;101284.59;;;7.86;86.23
47811;BME280;33575;52.600;7.318;2022-10-10T02:24:46;101286.03;;;7.84;86.36
47811;BME280;33575;52.600;7.318;2022-10-10T02:27:22;101285.42;;;7.81;86.47
47811;BME280;33575;52.600;7.318;2022-10-10T02:29:49;101284.63;;;7.77;86.57
47811;BME280;33575;52.600;7.318;2022-10-10T02:32:24;101280.67;;;7.74;86.57
47811;BME280;33575;52.600;7.318;2022-10-10T02:34:52;101277.82;;;7.73;86.56
47811;BME280;33575;52.600;7.318;2022-10-10T02:37:21;101274.00;;;7.69;87.01
47811;BME280;33575;52.600;7.318;2022-10-10T02:39:55;101268.68;;;7.70;86.61
47811;BME280;33575;52.600;7.318;2022-10-10T02:42:22;101267.64;;;7.71;86.72
47811;BME280;33575;52.600;7.318;2022-10-10T02:44:52;101264.78;;;7.67;87.06
47811;BME280;33575;52.600;7.318;2022-10-10T02:47:22;101258.56;;;7.66;86.92
47811;BME280;33575;52.600;7.318;2022-10-10T02:49:53;101257.12;;;7.63;86.97
47811;BME280;33575;52.600;7.318;2022-10-10T02:52:24;101251.66;;;7.61;87.09
47811;BME280;33575;52.600;7.318;2022-10-10T02:54:54;101249.16;;;7.58;87.21
47811;BME280;33575;52.600;7.318;2022-10-10T02:57:25;101248.81;;;7.57;87.21
47811;BME280;33575;52.600;7.318;2022-10-10T02:59:55;101245.57;;;7.55;87.20
47811;BME280;33575;52.600;7.318;2022-10-10T03:02:26;101242.76;;;7.55;87.13
47811;BME280;33575;52.600;7.318;2022-10-10T03:04:56;101241.82;;;7.59;86.97
47811;BME280;33575;52.600;7.318;2022-10-10T03:07:27;101237.38;;;7.60;86.95
47811;BME280;33575;52.600;7.318;2022-10-10T03:09:58;101234.60;;;7.60;87.03
47811;BME280;33575;52.600;7.318;2022-10-10T03:12:28;101230.79;;;7.61;86.98
47811;BME280;33575;52.600;7.318;2022-10-10T03:14:59;101228.74;;;7.61;87.36
47811;BME280;33575;52.600;7.318;2022-10-10T03:17:30;101229.28;;;7.59;87.62
47811;BME280;33575;52.600;7.318;2022-10-10T03:20:00;101232.70;;;7.58;87.48
47811;BME280;33575;52.600;7.318;2022-10-10T03:22:31;101235.09;;;7.61;87.35
47811;BME280;33575;52.600;7.318;2022-10-10T03:25:02;101234.17;;;7.64;87.29
47811;BME280;33575;52.600;7.318;2022-10-10T03:27:32;101233.31;;;7.64;87.49
47811;BME280;33575;52.600;7.318;2022-10-10T03:30:04;101228.54;;;7.64;87.36
47811;BME280;33575;52.600;7.318;2022-10-10T03:32:34;101231.15;;;7.66;87.18
47811;BME280;33575;52.600;7.318;2022-10-10T03:35:05;101234.89;;;7.65;87.27
47811;BME280;33575;52.600;7.318;2022-10-10T03:37:35;101231.09;;;7.64;87.34
47811;BME280;33575;52.600;7.318;2022-10-10T03:40:06;101227.21;;;7.62;87.45
47811;BME280;33575;52.600;7.318;2022-10-10T03:42:36;101227.77;;;7.62;87.38
47811;BME280;33575;52.600;7.318;2022-10-10T03:45:08;101226.83;;;7.63;87.54
47811;BME280;33575;52.600;7.318;2022-10-10T03:47:38;101222.28;;;7.65;87.42
47811;BME280;33575;52.600;7.318;2022-10-10T03:50:09;101219.47;;;7.65;87.39
47811;BME280;33575;52.600;7.318;2022-10-10T03:52:39;101217.85;;;7.64;87.50
47811;BME280;33575;52.600;7.318;2022-10-10T03:55:10;101215.38;;;7.64;87.44
47811;BME280;33575;52.600;7.318;2022-10-10T03:57:41;101216.51;;;7.64;87.53
47811;BME280;33575;52.600;7.318;2022-10-10T04:00:12;101217.86;;;7.65;87.49
47811;BME280;33575;52.600;7.318;2022-10-10T04:02:42;101217.42;;;7.65;87.52
47811;BME280;33575;52.600;7.318;2022-10-10T04:05:13;101213.34;;;7.65;87.64
47811;BME280;33575;52.600;7.318;2022-10-10T04:07:43;101214.20;;;7.63;87.63
47811;BME280;33575;52.600;7.318;2022-10-10T04:10:14;101212.61;;;7.63;87.65
47811;BME280;33575;52.600;7.318;2022-10-10T04:12:45;101206.86;;;7.62;87.79
47811;BME280;33575;52.600;7.318;2022-10-10T04:15:16;101206.37;;;7.61;87.79
47811;BME280;33575;52.600;7.318;2022-10-10T04:17:46;101204.71;;;7.59;87.75
47811;BME280;33575;52.600;7.318;2022-10-10T04:20:17;101201.38;;;7.60;87.57
47811;BME280;33575;52.600;7.318;2022-10-10T04:22:47;101198.75;;;7.61;87.71
47811;BME280;33575;52.600;7.318;2022-10-10T04:25:18;101198.56;;;7.62;87.62
47811;BME280;33575;52.600;7.318;2022-10-10T04:27:49;101196.34;;;7.59;87.61
47811;BME280;33575;52.600;7.318;2022-10-10T04:30:20;101201.58;;;7.58;87.76
47811;BME280;33575;52.600;7.318;2022-10-10T04:32:51;101203.52;;;7.59;87.74
47811;BME280;33575;52.600;7.318;2022-10-10T04:35:21;101201.37;;;7.60;87.84
47811;BME280;33575;52.600;7.318;2022-10-10T04:37:51;101200.55;;;7.63;87.77
47811;BME280;33575;52.600;7.318;2022-10-10T04:40:27;101196.24;;;7.65;87.67
47811;BME280;33575;52.600;7.318;2022-10-10T04:42:53;101196.04;;;7.64;87.82
47811;BME280;33575;52.600;7.318;2022-10-10T04:45:23;101197.82;;;7.64;87.91
47811;BME280;33575;52.600;7.318;2022-10-10T04:47:54;101198.87;;;7.67;87.89
47811;BME280;33575;52.600;7.318;2022-10-10T04:50:25;101199.51;;;7.68;87.88
47811;BME280;33575;52.600;7.318;2022-10-10T04:52:55;101201.20;;;7.69;87.76
47811;BME280;33575;52.600;7.318;2022-10-10T04:55:26;101201.09;;;7.69;87.94
47811;BME280;33575;52.600;7.318;2022-10-10T04:57:57;101198.98;;;7.68;88.07
47811;BME280;33575;52.600;7.318;2022-10-10T05:00:27;101197.15;;;7.69;87.90
47811;BME280;33575;52.600;7.318;2022-10-10T05:02:58;101197.34;;;7.68;87.83
47811;BME280;33575;52.600;7.318;2022-10-10T05:05:29;101194.34;;;7.65;87.97
47811;BME280;33575;52.600;7.318;2022-10-10T05:07:59;101193.69;;;7.64;88.06
47811;BME280;33575;52.600;7.318;2022-10-10T05:10:33;101194.07;;;7.63;88.00
47811;BME280;33575;52.600;7.318;2022-10-10T05:13:00;101189.52;;;7.59;88.14
47811;BME280;33575;52.600;7.318;2022-10-10T05:15:33;101188.23;;;7.56;88.14
47811;BME280;33575;52.600;7.318;2022-10-10T05:18:03;101188.35;;;7.55;88.16
47811;BME280;33575;52.600;7.318;2022-10-10T05:20:33;101186.65;;;7.55;88.16
47811;BME280;33575;52.600;7.318;2022-10-10T05:23:03;101180.82;;;7.55;88.10
47811;BME280;33575;52.600;7.318;2022-10-10T05:25:34;101179.92;;;7.55;88.04
47811;BME280;33575;52.600;7.318;2022-10-10T05:28:05;101177.55;;;7.53;88.11
47811;BME280;33575;52.600;7.318;2022-10-10T05:30:35;101176.53;;;7.52;88.09
47811;BME280;33575;52.600;7.318;2022-10-10T05:33:06;101177.27;;;7.51;88.15
47811;BME280;33575;52.600;7.318;2022-10-10T05:35:36;101177.19;;;7.50;88.17
47811;BME280;33575;52.600;7.318;2022-10-10T05:38:07;101178.16;;;7.52;88.07
47811;BME280;33575;52.600;7.318;2022-10-10T05:40:38;101175.48;;;7.53;88.12
47811;BME280;33575;52.600;7.318;2022-10-10T05:43:08;101174.82;;;7.53;88.21
47811;BME280;33575;52.600;7.318;2022-10-10T05:45:39;101167.75;;;7.55;88.12
47811;BME280;33575;52.600;7.318;2022-10-10T05:48:09;101168.41;;;7.54;88.20
47811;BME280;33575;52.600;7.318;2022-10-10T05:50:44;101165.34;;;7.55;88.25
47811;BME280;33575;52.600;7.318;2022-10-10T05:53:10;101166.23;;;7.57;88.28
47811;BME280;33575;52.600;7.318;2022-10-10T05:55:40;101166.90;;;7.58;88.26
47811;BME280;33575;52.600;7.318;2022-10-10T05:58:11;101165.39;;;7.59;88.18
47811;BME280;33575;52.600;7.318;2022-10-10T06:00:43;101164.63;;;7.61;88.19
47811;BME280;33575;52.600;7.318;2022-10-10T06:03:12;101161.66;;;7.60;88.20
47811;BME280;33575;52.600;7.318;2022-10-10T06:05:42;101162.44;;;7.62;88.25
47811;BME280;33575;52.600;7.318;2022-10-10T06:08:13;101163.56;;;7.65;88.24
47811;BME280;33575;52.600;7.318;2022-10-10T06:10:44;101163.31;;;7.67;88.20
47811;BME280;33575;52.600;7.318;2022-10-10T06:13:15;101164.48;;;7.67;88.47
47811;BME280;33575;52.600;7.318;2022-10-10T06:15:45;101164.81;;;7.69;88.35
47811;BME280;33575;52.600;7.318;2022-10-10T06:18:15;101159.49;;;7.70;88.62
47811;BME280;33575;52.600;7.318;2022-10-10T06:20:45;101157.80;;;7.72;88.48
47811;BME280;33575;52.600;7.318;2022-10-10T06:23:16;101158.36;;;7.72;88.69
47811;BME280;33575;52.600;7.318;2022-10-10T06:25:46;101158.92;;;7.75;88.74
47811;BME280;33575;52.600;7.318;2022-10-10T06:28:17;101159.76;;;7.80;88.73
47811;BME280;33575;52.600;7.318;2022-10-10T06:30:49;101162.50;;;7.85;88.85
47811;BME280;33575;52.600;7.318;2022-10-10T06:33:18;101159.98;;;7.88;88.84
47811;BME280;33575;52.600;7.318;2022-10-10T06:35:49;101165.04;;;7.92;88.92
47811;BME280;33575;52.600;7.318;2022-10-10T06:38:19;101165.07;;;7.96;88.94
47811;BME280;33575;52.600;7.318;2022-10-10T06:40:50;101167.81;;;8.00;88.80
47811;BME280;33575;52.600;7.318;2022-10-10T06:43:20;101164.34;;;8.00;89.05
47811;BME280;33575;52.600;7.318;2022-10-10T06:45:51;101165.08;;;8.01;89.11
47811;BME280;33575;52.600;7.318;2022-10-10T06:48:21;101167.25;;;8.04;89.31
47811;BME280;33575;52.600;7.318;2022-10-10T06:50:57;101168.52;;;8.09;89.64
47811;BME280;33575;52.600;7.318;2022-10-10T06:53:23;101169.82;;;8.13;89.44
47811;BME280;33575;52.600;7.318;2022-10-10T06:55:54;101171.64;;;8.16;89.52
47811;BME280;33575;52.600;7.318;2022-10-10T06:58:25;101173.50;;;8.19;89.83
47811;BME280;33575;52.600;7.318;2022-10-10T07:00:56;101175.45;;;8.24;90.19
47811;BME280;33575;52.600;7.318;2022-10-10T07:03:25;101177.58;;;8.33;89.93
47811;BME280;33575;52.600;7.318;2022-10-10T07:05:57;101177.66;;;8.38;89.87
47811;BME280;33575;52.600;7.318;2022-10-10T07:08:27;101179.64;;;8.43;90.23
47811;BME280;33575;52.600;7.318;2022-10-10T07:10:57;101176.61;;;8.45;90.26
47811;BME280;33575;52.600;7.318;2022-10-10T07:13:27;101176.30;;;8.51;90.19
47811;BME280;33575;52.600;7.318;2022-10-10T07:15:58;101177.65;;;8.52;90.79
47811;BME280;33575;52.600;7.318;2022-10-10T07:18:29;101175.69;;;8.56;90.61
47811;BME280;33575;52.600;7.318;2022-10-10T07:21:00;101179.78;;;8.63;90.89
47811;BME280;33575;52.600;7.318;2022-10-10T07:23:30;101182.90;;;8.67;90.93
47811;BME280;33575;52.600;7.318;2022-10-10T07:26:03;101184.22;;;8.73;90.98
47811;BME280;33575;52.600;7.318;2022-10-10T07:28:31;101188.41;;;8.80;90.73
47811;BME280;33575;52.600;7.318;2022-10-10T07:31:03;101189.87;;;8.84;91.23
47811;BME280;33575;52.600;7.318;2022-10-10T07:33:33;101190.37;;;8.89;91.24
47811;BME280;33575;52.600;7.318;2022-10-10T07:36:03;101189.48;;;8.94;91.18
47811;BME280;33575;52.600;7.318;2022-10-10T07:38:34;101189.26;;;9.00;91.45
47811;BME280;33575;52.600;7.318;2022-10-10T07:41:05;101194.00;;;9.07;91.58
47811;BME280;33575;52.600;7.318;2022-10-10T07:43:35;101192.58;;;9.15;91.20
47811;BME280;33575;52.600;7.318;2022-10-10T07:46:14;101188.04;;;9.21;91.72
47811;BME280;33575;52.600;7.318;2022-10-10T07:48:35;101186.75;;;9.27;91.53
47811;BME280;33575;52.600;7.318;2022-10-10T07:51:06;101191.29;;;9.31;92.27
47811;BME280;33575;52.600;7.318;2022-10-10T07:53:36;101186.57;;;9.36;93.17
47811;BME280;33575;52.600;7.318;2022-10-10T07:56:08;101192.11;;;9.36;94.10
47811;BME280;33575;52.600;7.318;2022-10-10T07:58:38;101187.54;;;9.46;94.03
47811;BME280;33575;52.600;7.318;2022-10-10T08:01:10;101189.49;;;9.55;93.86
47811;BME280;33575;52.600;7.318;2022-10-10T08:03:39;101183.61;;;9.61;92.85
47811;BME280;33575;52.600;7.318;2022-10-10T08:06:11;101186.24;;;9.76;93.15
47811;BME280;33575;52.600;7.318;2022-10-10T08:08:47;101181.09;;;9.82;93.25
47811;BME280;33575;52.600;7.318;2022-10-10T08:11:10;101188.81;;;9.89;93.08
47811;BME280;33575;52.600;7.318;2022-10-10T08:13:41;101190.40;;;9.93;92.71
47811;BME280;33575;52.600;7.318;2022-10-10T08:16:11;101188.09;;;10.02;92.69
47811;BME280;33575;52.600;7.318;2022-10-10T08:18:42;101188.48;;;10.12;92.87
47811;BME280;33575;52.600;7.318;2022-10-10T08:21:14;101190.95;;;10.17;92.28
47811;BME280;33575;52.600;7.318;2022-10-10T08:23:43;101195.39;;;10.32;92.04
47811;BME280;33575;52.600;7.318;2022-10-10T08:26:15;101193.49;;;10.38;91.89
47811;BME280;33575;52.600;7.318;2022-10-10T08:28:44;101187.75;;;10.47;91.78
47811;BME280;33575;52.600;7.318;2022-10-10T08:31:17;101188.65;;;10.61;91.53
47811;BME280;33575;52.600;7.318;2022-10-10T08:33:46;101185.81;;;10.64;91.30
47811;BME280;33575;52.600;7.318;2022-10-10T08:36:17;101181.14;;;10.68;90.82
47811;BME280;33575;52.600;7.318;2022-10-10T08:38:46;101180.63;;;10.79;90.95
47811;BME280;33575;52.600;7.318;2022-10-10T08:41:24;101182.27;;;10.99;90.69
47811;BME280;33575;52.600;7.318;2022-10-10T08:43:51;101180.99;;;11.05;90.66
47811;BME280;33575;52.600;7.318;2022-10-10T08:46:23;101184.24;;;11.09;90.48
47811;BME280;33575;52.600;7.318;2022-10-10T08:48:49;101183.86;;;11.06;90.85
47811;BME280;33575;52.600;7.318;2022-10-10T08:51:25;101189.13;;;11.21;90.48
47811;BME280;33575;52.600;7.318;2022-10-10T08:53:52;101189.29;;;11.28;89.81
47811;BME280;33575;52.600;7.318;2022-10-10T08:56:25;101187.38;;;11.27;91.06
47811;BME280;33575;52.600;7.318;2022-10-10T08:58:52;101185.06;;;11.38;90.05
47811;BME280;33575;52.600;7.318;2022-10-10T09:01:27;101186.69;;;11.53;89.97
47811;BME280;33575;52.600;7.318;2022-10-10T09:03:53;101189.77;;;11.63;89.81
47811;BME280;33575;52.600;7.318;2022-10-10T09:06:31;101198.47;;;11.74;89.26
47811;BME280;33575;52.600;7.318;2022-10-10T09:08:57;101193.22;;;11.79;89.77
47811;BME280;33575;52.600;7.318;2022-10-10T09:11:34;101191.07;;;11.92;89.89
47811;BME280;33575;52.600;7.318;2022-10-10T09:14:02;101188.04;;;12.00;89.65
47811;BME280;33575;52.600;7.318;2022-10-10T09:16:32;101188.87;;;12.18;88.73
47811;BME280;33575;52.600;7.318;2022-10-10T09:19:02;101189.97;;;12.30;88.98
47811;BME280;33575;52.600;7.318;2022-10-10T09:21:29;101190.62;;;12.28;88.22
47811;BME280;33575;52.600;7.318;2022-10-10T09:24:01;101185.96;;;12.50;88.42
47811;BME280;33575;52.600;7.318;2022-10-10T09:26:29;101180.97;;;12.50;88.59
47811;BME280;33575;52.600;7.318;2022-10-10T09:29:01;101183.32;;;12.71;88.46
47811;BME280;33575;52.600;7.318;2022-10-10T09:31:32;101182.03;;;12.61;87.59
47811;BME280;33575;52.600;7.318;2022-10-10T09:34:02;101178.30;;;12.76;87.88
47811;BME280;33575;52.600;7.318;2022-10-10T09:36:31;101178.69;;;12.84;87.99
47811;BME280;33575;52.600;7.318;2022-10-10T09:39:03;101176.21;;;12.97;87.87
47811;BME280;33575;52.600;7.318;2022-10-10T09:41:35;101180.94;;;13.09;87.63
47811;BME280;33575;52.600;7.318;2022-10-10T09:44:03;101177.30;;;13.24;86.96
47811;BME280;33575;52.600;7.318;2022-10-10T09:46:30;101174.90;;;13.36;87.15
47811;BME280;33575;52.600;7.318;2022-10-10T09:49:01;101174.81;;;13.48;85.87
47811;BME280;33575;52.600;7.318;2022-10-10T09:51:32;101175.60;;;13.65;87.06
47811;BME280;33575;52.600;7.318;2022-10-10T09:54:04;101180.84;;;13.79;87.69
47811;BME280;33575;52.600;7.318;2022-10-10T09:56:39;101180.65;;;13.86;87.07
47811;BME280;33575;52.600;7.318;2022-10-10T09:59:03;101179.61;;;13.84;85.81
47811;BME280;33575;52.600;7.318;2022-10-10T10:01:33;101183.09;;;13.90;86.25
47811;BME280;33575;52.600;7.318;2022-10-10T10:04:12;101177.01;;;13.95;84.96
47811;BME280;33575;52.600;7.318;2022-10-10T10:06:34;101177.51;;;13.98;85.31
47811;BME280;33575;52.600;7.318;2022-10-10T10:09:05;101176.77;;;14.09;85.93
47811;BME280;33575;52.600;7.318;2022-10-10T10:11:36;101178.48;;;14.17;86.75
47811;BME280;33575;52.600;7.318;2022-10-10T10:14:05;101179.62;;;14.17;84.51
47811;BME280;33575;52.600;7.318;2022-10-10T10:16:38;101177.26;;;14.37;85.17
47811;BME280;33575;52.600;7.318;2022-10-10T10:21:46;101179.77;;;14.27;83.99
47811;BME280;33575;52.600;7.318;2022-10-10T10:26:43;101181.03;;;14.59;84.29
47811;BME280;33575;52.600;7.318;2022-10-10T10:31:52;101188.81;;;14.63;83.31
47811;BME280;33575;52.600;7.318;2022-10-10T10:34:24;101191.40;;;14.60;83.44
47811;BME280;33575;52.600;7.318;2022-10-10T10:36:44;101192.61;;;14.68;83.48
47811;BME280;33575;52.600;7.318;2022-10-10T10:39:18;101193.46;;;14.77;84.12
47811;BME280;33575;52.600;7.318;2022-10-10T10:41:45;101199.71;;;14.81;83.93
47811;BME280;33575;52.600;7.318;2022-10-10T10:44:20;101196.57;;;14.93;84.48
47811;BME280;33575;52.600;7.318;2022-10-10T10:46:49;101193.22;;;14.91;82.66
47811;BME280;33575;52.600;7.318;2022-10-10T10:49:14;101190.94;;;15.07;83.92
47811;BME280;33575;52.600;7.318;2022-10-10T10:51:55;101196.61;;;15.11;82.94
47811;BME280;33575;52.600;7.318;2022-10-10T10:54:24;101197.21;;;15.09;83.79
47811;BME280;33575;52.600;7.318;2022-10-10T10:56:47;101195.11;;;15.19;82.33
47811;BME280;33575;52.600;7.318;2022-10-10T10:59:27;101200.43;;;15.21;82.82
47811;BME280;33575;52.600;7.318;2022-10-10T11:01:51;101201.37;;;15.21;82.03
47811;BME280;33575;52.600;7.318;2022-10-10T11:04:29;101200.06;;;15.18;81.68
47811;BME280;33575;52.600;7.318;2022-10-10T11:06:56;101203.32;;;15.18;80.78
47811;BME280;33575;52.600;7.318;2022-10-10T11:09:21;101197.41;;;15.16;81.21
47811;BME280;33575;52.600;7.318;2022-10-10T11:11:54;101201.25;;;15.24;82.06
47811;BME280;33575;52.600;7.318;2022-10-10T11:14:26;101199.12;;;15.09;81.47
47811;BME280;33575;52.600;7.318;2022-10-10T11:16:54;101201.11;;;15.24;80.68
47811;BME280;33575;52.600;7.318;2022-10-10T11:19:20;101197.30;;;15.38;81.13
47811;BME280;33575;52.600;7.318;2022-10-10T11:21:48;101197.15;;;15.39;80.61
47811;BME280;33575;52.600;7.318;2022-10-10T11:24:27;101196.27;;;15.54;80.97
47811;BME280;33575;52.600;7.318;2022-10-10T11:26:51;101199.69;;;15.65;81.05
47811;BME280;33575;52.600;7.318;2022-10-10T11:29:20;101205.01;;;15.78;80.95
47811;BME280;33575;52.600;7.318;2022-10-10T11:31:55;101200.35;;;15.83;80.59
47811;BME280;33575;52.600;7.318;2022-10-10T11:34:21;101200.53;;;15.91;79.52
47811;BME280;33575;52.600;7.318;2022-10-10T11:36:48;101199.50;;;16.07;80.67
47811;BME280;33575;52.600;7.318;2022-10-10T11:39:22;101200.24;;;16.08;79.85
47811;BME280;33575;52.600;7.318;2022-10-10T11:41:51;101203.82;;;16.17;79.35
47811;BME280;33575;52.600;7.318;2022-10-10T11:44:23;101209.28;;;16.14;78.66
47811;BME280;33575;52.600;7.318;2022-10-10T11:46:55;101213.83;;;16.12;77.72
47811;BME280;33575;52.600;7.318;2022-10-10T11:49:23;101211.62;;;16.09;77.56
47811;BME280;33575;52.600;7.318;2022-10-10T11:54:27;101207.85;;;16.01;77.27
47811;BME280;33575;52.600;7.318;2022-10-10T11:56:53;101210.09;;;16.04;77.83
47811;BME280;33575;52.600;7.318;2022-10-10T11:59:24;101209.23;;;16.08;78.40
47811;BME280;33575;52.600;7.318;2022-10-10T12:01:54;101212.24;;;16.07;77.59
47811;BME280;33575;52.600;7.318;2022-10-10T12:04:22;101212.59;;;16.01;79.07
47811;BME280;33575;52.600;7.318;2022-10-10T12:06:56;101206.93;;;15.98;78.07
47811;BME280;33575;52.600;7.318;2022-10-10T12:09:25;101210.48;;;15.67;77.25
47811;BME280;33575;52.600;7.318;2022-10-10T12:11:55;101210.62;;;15.68;78.34
47811;BME280;33575;52.600;7.318;2022-10-10T12:14:25;101217.59;;;15.60;78.51
47811;BME280;33575;52.600;7.318;2022-10-10T12:16:54;101223.70;;;15.71;79.11
47811;BME280;33575;52.600;7.318;2022-10-10T12:19:26;101226.49;;;15.65;79.19
47811;BME280;33575;52.600;7.318;2022-10-10T12:21:57;101225.84;;;15.72;78.90
47811;BME280;33575;52.600;7.318;2022-10-10T12:24:26;101225.76;;;15.67;78.67
47811;BME280;33575;52.600;7.318;2022-10-10T12:39:33;101234.69;;;15.56;77.72
47811;BME280;33575;52.600;7.318;2022-10-10T12:41:57;101241.93;;;15.53;77.48
47811;BME280;33575;52.600;7.318;2022-10-10T12:49:28;101237.39;;;15.60;78.65
47811;BME280;33575;52.600;7.318;2022-10-10T12:52:01;101234.43;;;15.68;78.47
47811;BME280;33575;52.600;7.318;2022-10-10T12:54:36;101231.63;;;15.75;78.73
47811;BME280;33575;52.600;7.318;2022-10-10T12:57:07;101228.37;;;15.80;79.12
47811;BME280;33575;52.600;7.318;2022-10-10T12:59:33;101231.01;;;16.01;78.95
47811;BME280;33575;52.600;7.318;2022-10-10T13:02:03;101236.07;;;16.07;78.86
47811;BME280;33575;52.600;7.318;2022-10-10T13:04:31;101231.80;;;16.02;78.73
47811;BME280;33575;52.600;7.318;2022-10-10T13:07:02;101226.85;;;15.96;77.66
47811;BME280;33575;52.600;7.318;2022-10-10T13:09:36;101230.63;;;15.84;77.65
47811;BME280;33575;52.600;7.318;2022-10-10T13:12:04;101228.11;;;15.89;77.61
47811;BME280;33575;52.600;7.318;2022-10-10T13:14:39;101230.22;;;15.80;78.01
47811;BME280;33575;52.600;7.318;2022-10-10T13:17:03;101234.12;;;15.79;78.35
47811;BME280;33575;52.600;7.318;2022-10-10T13:19:40;101239.07;;;15.85;78.17
47811;BME280;33575;52.600;7.318;2022-10-10T13:22:04;101236.39;;;15.83;78.34
47811;BME280;33575;52.600;7.318;2022-10-10T13:24:35;101230.59;;;15.83;78.23
47811;BME280;33575;52.600;7.318;2022-10-10T13:27:04;101233.44;;;15.89;77.99
47811;BME280;33575;52.600;7.318;2022-10-10T13:29:35;101237.36;;;15.98;78.17
47811;BME280;33575;52.600;7.318;2022-10-10T13:32:06;101228.03;;;15.87;78.07
47811;BME280;33575;52.600;7.318;2022-10-10T13:34:37;101225.12;;;15.91;78.93
47811;BME280;33575;52.600;7.318;2022-10-10T13:37:06;101235.47;;;15.95;78.97
47811;BME280;33575;52.600;7.318;2022-10-10T13:39:37;101244.00;;;15.96;79.18